createdAt,value
2023-05-02T15:16:52.973Z,48.32
2023-05-02T15:17:53.978Z,46.57
2023-05-02T15:18:54.419Z,47.38
2023-05-02T15:19:57.823Z,45.05
2023-05-02T15:20:56.269Z,47.18
2023-05-02T15:21:57.181Z,44.77
2023-05-02T15:22:58.088Z,47.10
2023-05-02T15:23:58.977Z,48.02
2023-05-02T15:25:00.288Z,47.79
2023-05-02T15:26:00.449Z,45.66
2023-05-02T15:27:01.339Z,44.54
2023-05-02T15:28:02.281Z,46.57
2023-05-02T15:29:03.166Z,46.06
2023-05-02T15:30:04.479Z,43.65
2023-05-02T15:31:05.016Z,45.80
2023-05-02T15:32:05.989Z,45.50
2023-05-02T15:33:06.872Z,45.50
2023-05-02T15:34:07.733Z,45.83
2023-05-02T15:35:08.651Z,50.78
2023-05-02T15:36:09.557Z,49.08
2023-05-02T15:37:10.451Z,49.16
2023-05-02T15:38:11.354Z,47.22
2023-05-02T15:39:12.268Z,52.61
2023-05-02T15:40:13.207Z,49.26
2023-05-02T15:41:14.058Z,47.05
2023-05-02T15:42:15.013Z,47.75
2023-05-02T15:43:15.447Z,48.16
2023-05-02T15:44:16.343Z,47.96
2023-05-02T15:45:17.263Z,47.55
2023-05-02T15:46:18.253Z,48.49
2023-05-02T15:47:20.903Z,45.95
2023-05-02T15:48:20.037Z,50.22
2023-05-02T15:49:20.919Z,48.36
2023-05-02T15:50:21.846Z,49.79
2023-05-02T15:51:22.748Z,47.55
2023-05-02T15:52:23.561Z,48.16
2023-05-02T15:53:24.418Z,47.96
2023-05-02T15:54:25.302Z,48.08
2023-05-02T15:55:26.231Z,47.78
2023-05-02T15:56:27.142Z,49.20
2023-05-02T15:57:28.022Z,50.24
2023-05-02T15:58:28.916Z,50.45
2023-05-02T15:59:29.814Z,48.31
2023-05-02T16:00:30.721Z,48.94
2023-05-02T16:01:31.650Z,49.45
2023-05-02T16:02:32.536Z,48.84
2023-05-02T16:03:33.515Z,49.58
2023-05-02T16:04:34.100Z,48.35
2023-05-02T16:05:34.519Z,49.17
2023-05-02T16:06:35.440Z,52.33
2023-05-02T16:07:36.318Z,47.85
2023-05-02T16:08:37.220Z,49.98
2023-05-02T16:09:38.129Z,50.59
2023-05-02T16:10:39.044Z,50.70
2023-05-02T16:11:39.940Z,50.21
2023-05-02T16:12:40.838Z,49.40
2023-05-02T16:13:41.738Z,52.43
2023-05-02T16:14:42.656Z,50.78
2023-05-02T16:15:43.595Z,49.76
2023-05-02T16:16:44.445Z,47.92
2023-05-02T16:17:45.405Z,48.64
2023-05-02T16:18:46.355Z,48.33
2023-05-02T16:19:47.274Z,48.43
2023-05-02T16:20:48.188Z,48.43
2023-05-02T16:21:49.070Z,49.76
2023-05-02T16:22:50.008Z,49.48
2023-05-02T16:23:50.897Z,49.58
2023-05-02T16:24:51.815Z,52.35
2023-05-02T16:25:52.713Z,51.53
2023-05-02T16:26:53.676Z,52.45
2023-05-02T16:27:54.556Z,52.35
2023-05-02T16:28:55.441Z,51.03
2023-05-02T16:29:56.353Z,51.84
2023-05-02T16:30:57.288Z,52.78
2023-05-02T16:31:58.221Z,52.68
2023-05-02T16:32:59.179Z,52.40
2023-05-02T16:34:00.039Z,52.91
2023-05-02T16:35:01.015Z,51.79
2023-05-02T16:36:01.941Z,53.62
2023-05-02T16:37:03.871Z,53.52
2023-05-02T16:38:03.369Z,52.70
2023-05-02T16:39:03.865Z,52.40
2023-05-02T16:40:05.028Z,52.60
2023-05-02T16:41:05.611Z,52.70
2023-05-02T16:42:05.985Z,52.60
2023-05-02T16:43:06.928Z,54.03
2023-05-02T16:44:07.858Z,55.76
2023-05-02T16:45:08.780Z,55.87
2023-05-02T16:46:09.668Z,53.42
2023-05-02T16:47:10.595Z,53.31
2023-05-02T16:48:11.729Z,53.39
2023-05-02T16:49:12.281Z,52.68
2023-05-02T16:50:13.142Z,53.11
2023-05-02T16:51:14.020Z,53.62
2023-05-02T16:52:14.914Z,51.89
2023-05-02T16:53:15.870Z,50.36
2023-05-02T16:54:16.820Z,52.01
2023-05-02T16:55:17.663Z,51.10
2023-05-02T16:56:18.902Z,50.38
2023-05-02T16:57:19.763Z,52.73
2023-05-02T16:58:19.818Z,51.61
2023-05-02T16:59:20.752Z,52.12
2023-05-02T17:00:21.628Z,51.51
2023-05-02T17:01:22.576Z,49.87
2023-05-02T17:02:23.142Z,50.18
2023-05-02T17:03:24.077Z,50.00
2023-05-02T17:04:24.987Z,52.04
2023-05-02T17:05:25.885Z,50.92
2023-05-02T17:06:26.789Z,51.22
2023-05-02T17:07:27.694Z,50.71
2023-05-02T17:08:28.582Z,52.25
2023-05-02T17:09:29.496Z,50.31
2023-05-02T17:10:30.392Z,50.41
2023-05-02T17:11:31.306Z,54.59
2023-05-02T17:12:32.206Z,51.43
2023-05-02T17:13:33.112Z,51.84
2023-05-02T17:14:34.072Z,51.43
2023-05-02T17:15:34.946Z,53.98
2023-05-02T17:16:35.862Z,52.98
2023-05-02T17:17:36.758Z,51.96
2023-05-02T17:18:37.676Z,53.29
2023-05-02T17:19:38.566Z,52.58
2023-05-02T17:20:39.511Z,53.92
2023-05-02T17:21:40.397Z,53.52
2023-05-02T17:22:41.289Z,55.05
2023-05-02T17:23:42.186Z,54.54
2023-05-02T17:24:43.083Z,54.64
2023-05-02T17:25:44.047Z,53.62
2023-05-02T17:26:44.519Z,54.33
2023-05-02T17:27:45.399Z,54.13
2023-05-02T17:28:46.288Z,53.42
2023-05-02T17:29:47.206Z,52.91
2023-05-02T17:30:48.082Z,53.92
2023-05-02T17:31:48.973Z,54.33
2023-05-02T17:32:49.927Z,53.11
2023-05-02T17:33:50.808Z,53.62
2023-05-02T17:34:51.710Z,53.95
2023-05-02T17:35:52.584Z,55.18
2023-05-02T17:36:53.525Z,55.49
2023-05-02T17:37:54.364Z,56.20
2023-05-02T17:38:55.267Z,54.57
2023-05-02T17:39:56.295Z,54.57
2023-05-02T17:40:56.743Z,54.46
2023-05-02T17:41:57.637Z,52.62
2023-05-02T17:42:58.539Z,56.40
2023-05-02T17:43:59.432Z,56.30
2023-05-02T17:45:00.390Z,53.64
2023-05-02T17:46:01.293Z,54.87
2023-05-02T17:47:02.143Z,54.97
2023-05-02T17:48:03.962Z,55.79
2023-05-02T17:49:04.013Z,55.18
2023-05-02T17:50:05.272Z,54.26
2023-05-02T17:51:05.869Z,54.39
2023-05-02T17:52:06.763Z,56.53
2023-05-02T17:53:07.657Z,56.30
2023-05-02T17:54:08.585Z,55.08
2023-05-02T17:55:09.471Z,60.80
2023-05-02T17:56:10.401Z,57.45
2023-05-02T17:57:11.270Z,57.32
2023-05-02T17:58:12.173Z,55.99
2023-05-02T17:59:13.081Z,55.99
2023-05-02T18:00:13.961Z,58.86
2023-05-02T18:01:14.916Z,59.37
2023-05-02T18:02:15.787Z,56.71
2023-05-02T18:03:16.784Z,54.26
2023-05-02T18:04:17.270Z,54.36
2023-05-02T18:05:18.128Z,54.28
2023-05-02T18:06:19.052Z,53.47
2023-05-02T18:07:19.930Z,53.06
2023-05-02T18:08:20.848Z,53.57
2023-05-02T18:09:21.795Z,55.99
2023-05-02T18:10:22.738Z,54.69
2023-05-02T18:11:23.710Z,56.40
2023-05-02T18:12:24.484Z,53.98
2023-05-02T18:13:25.390Z,53.26
2023-05-02T18:14:27.113Z,54.59
2023-05-02T18:15:27.003Z,56.53
2023-05-02T18:16:27.945Z,54.49
2023-05-02T18:17:28.854Z,53.88
2023-05-02T18:18:29.814Z,52.44
2023-05-02T18:19:30.770Z,53.36
2023-05-02T18:20:31.669Z,53.28
2023-05-02T18:21:32.555Z,54.61
2023-05-02T18:22:33.448Z,54.10
2023-05-02T18:23:34.402Z,54.31
2023-05-02T18:24:35.327Z,53.08
2023-05-02T18:25:36.242Z,54.82
2023-05-02T18:26:37.106Z,56.87
2023-05-02T18:27:37.994Z,54.82
2023-05-02T18:28:38.904Z,54.00
2023-05-02T18:29:39.802Z,54.00
2023-05-02T18:30:40.696Z,57.48
2023-05-02T18:31:41.621Z,55.13
2023-05-02T18:32:42.564Z,58.81
2023-05-02T18:33:43.448Z,58.91
2023-05-02T18:34:44.356Z,59.94
2023-05-02T18:35:45.218Z,57.99
2023-05-02T18:36:46.112Z,58.61
2023-05-02T18:37:46.996Z,56.56
2023-05-02T18:38:47.918Z,55.74
2023-05-02T18:39:48.812Z,59.01
2023-05-02T18:40:49.709Z,55.43
2023-05-02T18:41:50.604Z,55.43
2023-05-02T18:42:51.495Z,58.29
2023-05-02T18:43:52.405Z,58.61
2023-05-02T18:44:53.292Z,58.61
2023-05-02T18:45:54.250Z,59.12
2023-05-02T18:46:55.112Z,59.45
2023-05-02T18:47:56.146Z,62.93
2023-05-02T18:48:56.556Z,61.50
2023-05-02T18:49:59.312Z,57.81
2023-05-02T18:50:58.423Z,55.15
2023-05-02T18:51:59.367Z,56.69
2023-05-02T18:52:59.793Z,56.38
2023-05-02T18:54:00.706Z,55.36
2023-05-02T18:55:01.859Z,55.46
2023-05-02T18:56:02.180Z,55.26
2023-05-02T18:57:03.117Z,57.94
2023-05-02T18:58:04.049Z,56.20
2023-05-02T18:59:04.958Z,57.53
2023-05-02T19:00:05.849Z,56.61
2023-05-02T19:01:06.745Z,55.49
2023-05-02T19:02:07.669Z,59.81
2023-05-02T19:03:08.646Z,58.38
2023-05-02T19:04:09.088Z,58.58
2023-05-02T19:05:09.995Z,56.64
2023-05-02T19:06:10.902Z,57.05
2023-05-02T19:07:11.754Z,56.64
2023-05-02T19:08:12.764Z,58.17
2023-05-02T19:09:13.204Z,57.35
2023-05-02T19:10:14.156Z,57.25
2023-05-02T19:11:15.031Z,56.02
2023-05-02T19:12:15.937Z,56.33
2023-05-02T19:13:17.004Z,59.41
2023-05-02T19:14:17.412Z,59.92
2023-05-02T19:15:18.278Z,60.33
2023-05-02T19:16:19.228Z,59.92
2023-05-02T19:17:20.106Z,59.00
2023-05-02T19:18:21.019Z,62.58
2023-05-02T19:19:21.927Z,62.07
2023-05-02T19:20:22.904Z,61.55
2023-05-02T19:21:23.795Z,62.99
2023-05-02T19:22:24.695Z,65.14
2023-05-02T19:23:25.634Z,66.37
2023-05-02T19:24:26.517Z,65.07
2023-05-02T19:25:27.423Z,65.07
2023-05-02T19:26:28.320Z,63.12
2023-05-02T19:27:29.206Z,65.37
2023-05-02T19:28:30.234Z,64.76
2023-05-02T19:29:30.614Z,61.18
2023-05-02T19:30:31.511Z,62.92
2023-05-02T19:31:32.444Z,63.64
2023-05-02T19:32:33.386Z,62.81
2023-05-02T19:33:34.267Z,62.51
2023-05-02T19:34:35.147Z,61.38
2023-05-02T19:35:36.115Z,63.22
2023-05-02T19:36:36.576Z,63.43
2023-05-02T19:37:37.512Z,65.58
2023-05-02T19:38:38.531Z,63.43
2023-05-02T19:39:39.091Z,63.94
2023-05-02T19:40:39.677Z,61.69
2023-05-02T19:41:40.079Z,62.51
2023-05-02T19:42:40.952Z,60.76
2023-05-02T19:43:41.874Z,61.76
2023-05-02T19:44:42.750Z,62.99
2023-05-02T19:45:43.659Z,62.17
2023-05-02T19:46:44.582Z,63.09
2023-05-02T19:47:45.661Z,63.73
2023-05-02T19:48:46.108Z,63.43
2023-05-02T19:49:46.995Z,62.92
2023-05-02T19:50:47.905Z,66.91
2023-05-02T19:51:48.793Z,65.37
2023-05-02T19:52:49.664Z,62.71
2023-05-02T19:53:50.588Z,61.89
2023-05-02T19:54:51.476Z,64.04
2023-05-02T19:55:52.362Z,61.38
2023-05-02T19:56:53.257Z,61.99
2023-05-02T19:57:54.159Z,61.18
2023-05-02T19:58:55.064Z,61.38
2023-05-02T19:59:55.968Z,62.61
2023-05-02T20:00:56.904Z,61.69
2023-05-02T20:01:57.771Z,61.48
2023-05-02T20:02:58.712Z,62.30
2023-05-02T20:03:59.749Z,61.89
2023-05-02T20:05:00.625Z,61.99
2023-05-02T20:06:01.541Z,61.07
2023-05-02T20:07:02.446Z,60.97
2023-05-02T20:08:03.468Z,61.38
2023-05-02T20:09:03.933Z,61.89
2023-05-02T20:10:05.168Z,62.81
2023-05-02T20:11:05.708Z,61.27
2023-05-02T20:12:06.615Z,62.19
2023-05-02T20:13:07.517Z,63.32
2023-05-02T20:14:08.430Z,62.12
2023-05-02T20:15:09.300Z,62.02
2023-05-02T20:16:10.181Z,61.82
2023-05-02T20:17:11.067Z,61.82
2023-05-02T20:18:12.019Z,63.35
2023-05-02T20:19:13.126Z,62.95
2023-05-02T20:20:13.527Z,65.81
2023-05-02T20:21:14.418Z,64.48
2023-05-02T20:22:15.283Z,63.46
2023-05-02T20:23:16.241Z,64.48
2023-05-02T20:24:17.077Z,64.48
2023-05-02T20:25:18.046Z,65.41
2023-05-02T20:26:18.911Z,65.03
2023-05-02T20:27:19.792Z,64.31
2023-05-02T20:28:20.744Z,64.20
2023-05-02T20:29:21.630Z,62.98
2023-05-02T20:30:22.517Z,64.72
2023-05-02T20:31:23.444Z,64.61
2023-05-02T20:32:24.328Z,63.79
2023-05-02T20:33:33.492Z,62.98
2023-05-02T20:34:26.992Z,65.03
2023-05-02T20:35:26.884Z,62.56
2023-05-02T20:36:27.815Z,63.69
2023-05-02T20:37:28.689Z,65.95
2023-05-02T20:38:29.732Z,64.92
2023-05-02T20:39:30.201Z,67.21
2023-05-02T20:40:31.187Z,67.21
2023-05-02T20:41:31.623Z,65.06
2023-05-02T20:42:32.514Z,66.19
2023-05-02T20:43:33.418Z,65.06
2023-05-02T20:44:34.303Z,66.90
2023-05-02T20:45:35.196Z,64.85
2023-05-02T20:46:36.190Z,64.64
2023-05-02T20:47:36.640Z,65.47
2023-05-02T20:48:37.577Z,66.39
2023-05-02T20:49:38.475Z,65.88
2023-05-02T20:50:39.419Z,66.42
2023-05-02T20:51:40.370Z,66.80
2023-05-02T20:52:41.247Z,65.80
2023-05-02T20:53:42.191Z,65.29
2023-05-02T20:54:43.107Z,66.52
2023-05-02T20:55:44.109Z,65.19
2023-05-02T20:56:52.056Z,66.83
2023-05-02T20:57:45.488Z,68.48
2023-05-02T20:58:46.401Z,66.22
2023-05-02T20:59:47.350Z,65.60
2023-05-02T21:00:48.315Z,65.12
2023-05-02T21:01:48.848Z,66.25
2023-05-02T21:02:49.972Z,65.83
2023-05-02T21:03:50.541Z,66.14
2023-05-02T21:04:50.968Z,65.83
2023-05-02T21:05:51.860Z,66.14
2023-05-02T21:06:52.827Z,66.04
2023-05-02T21:07:53.721Z,67.07
2023-05-02T21:08:54.674Z,67.07
2023-05-02T21:09:55.667Z,67.48
2023-05-02T21:10:56.334Z,67.68
2023-05-02T21:11:57.224Z,67.38
2023-05-02T21:12:58.156Z,66.28
2023-05-02T21:13:59.057Z,68.74
2023-05-02T21:14:59.974Z,69.05
2023-05-02T21:16:00.890Z,69.77
2023-05-02T21:17:01.738Z,68.85
2023-05-02T21:18:02.717Z,67.71
2023-05-02T21:19:03.628Z,68.13
2023-05-02T21:20:04.854Z,66.79
2023-05-02T21:21:05.430Z,68.26
2023-05-02T21:22:06.340Z,68.05
2023-05-02T21:23:07.244Z,68.57
2023-05-02T21:24:08.136Z,69.70
2023-05-02T21:25:09.100Z,68.26
2023-05-02T21:26:09.547Z,69.60
2023-05-02T21:27:10.471Z,69.39
2023-05-02T21:28:11.393Z,68.77
2023-05-02T21:29:12.267Z,67.13
2023-05-02T21:30:13.185Z,66.96
2023-05-02T21:31:14.067Z,67.47
2023-05-02T21:32:15.011Z,69.22
2023-05-02T21:33:15.890Z,68.70
2023-05-02T21:34:16.787Z,68.40
2023-05-02T21:35:17.686Z,69.84
2023-05-02T21:36:18.738Z,70.28
2023-05-02T21:37:19.173Z,71.03
2023-05-02T21:38:20.078Z,71.96
2023-05-02T21:39:20.981Z,72.71
2023-05-02T21:40:21.882Z,73.23
2023-05-02T21:41:22.757Z,73.78
2023-05-02T21:42:23.724Z,73.88
2023-05-02T21:43:24.648Z,74.19
2023-05-02T21:44:25.536Z,74.29
2023-05-02T21:45:26.434Z,74.71
2023-05-02T21:46:27.336Z,75.53
2023-05-02T21:47:28.258Z,75.22
2023-05-02T21:48:29.182Z,74.95
2023-05-02T21:49:30.081Z,75.15
2023-05-02T21:50:30.959Z,76.90
2023-05-02T21:51:31.849Z,77.31
2023-05-02T21:52:32.782Z,75.15
2023-05-02T21:53:33.711Z,75.77
2023-05-02T21:54:35.181Z,75.67
2023-05-02T21:55:35.110Z,75.36
2023-05-02T21:56:36.006Z,75.67
2023-05-02T21:57:37.099Z,76.12
2023-05-02T21:58:37.568Z,76.42
2023-05-02T21:59:38.020Z,75.60
2023-05-02T22:00:39.000Z,75.29
2023-05-02T22:01:39.905Z,75.60
2023-05-02T22:02:40.920Z,76.01
2023-05-02T22:03:41.378Z,76.32
2023-05-02T22:04:42.262Z,76.32
2023-05-02T22:05:43.164Z,76.01
2023-05-02T22:06:44.137Z,75.91
2023-05-02T22:07:45.050Z,75.60
2023-05-02T22:08:45.954Z,76.32
2023-05-02T22:09:46.817Z,76.32
2023-05-02T22:10:47.711Z,76.32
2023-05-02T22:11:48.618Z,76.63
2023-05-02T22:12:49.542Z,77.35
2023-05-02T22:13:50.417Z,77.56
2023-05-02T22:14:51.309Z,78.69
2023-05-02T22:15:52.222Z,79.04
2023-05-02T22:16:53.116Z,78.63
2023-05-02T22:17:54.172Z,77.91
2023-05-02T22:18:54.593Z,77.49
2023-05-02T22:19:55.522Z,77.53
2023-05-02T22:20:56.395Z,77.73
2023-05-02T22:21:57.450Z,77.73
2023-05-02T22:22:57.944Z,78.05
2023-05-02T22:23:58.785Z,78.25
2023-05-02T22:24:59.670Z,78.14
2023-05-02T22:26:00.566Z,78.25
2023-05-02T22:27:01.490Z,78.45
2023-05-02T22:28:02.404Z,78.45
2023-05-02T22:29:03.324Z,78.35
2023-05-02T22:30:04.521Z,78.45
2023-05-02T22:31:05.008Z,78.56
2023-05-02T22:32:05.951Z,78.70
2023-05-02T22:33:06.917Z,79.11
2023-05-02T22:34:07.799Z,79.63
2023-05-02T22:35:08.682Z,79.94
2023-05-02T22:36:09.560Z,80.39
2023-05-02T22:37:10.471Z,81.63
2023-05-02T22:38:11.418Z,81.73
2023-05-02T22:39:12.296Z,81.67
2023-05-02T22:40:13.209Z,81.35
2023-05-02T22:41:14.106Z,81.46
2023-05-02T22:42:14.968Z,81.35
2023-05-02T22:43:15.908Z,80.74
2023-05-02T22:44:16.793Z,80.43
2023-05-02T22:45:17.674Z,80.77
2023-05-02T22:46:18.642Z,81.81
2023-05-02T22:47:19.158Z,81.81
2023-05-02T22:48:20.037Z,83.09
2023-05-02T22:49:20.926Z,83.29
2023-05-02T22:50:21.816Z,83.29
2023-05-02T22:51:22.728Z,82.67
2023-05-02T22:52:23.600Z,81.91
2023-05-02T22:53:24.539Z,82.12
2023-05-02T22:54:25.416Z,82.22
2023-05-02T22:55:26.341Z,82.43
2023-05-02T22:56:27.280Z,82.64
2023-05-02T22:57:28.212Z,82.64
2023-05-02T22:58:29.124Z,83.36
2023-05-02T22:59:30.056Z,84.08
2023-05-02T23:00:30.901Z,84.12
2023-05-02T23:01:31.865Z,83.81
2023-05-02T23:02:32.882Z,83.40
2023-05-02T23:03:33.430Z,83.40
2023-05-02T23:04:33.923Z,83.40
2023-05-02T23:05:34.818Z,83.40
2023-05-02T23:06:35.743Z,83.25
2023-05-02T23:07:36.793Z,83.05
2023-05-02T23:08:37.249Z,82.64
2023-05-02T23:09:38.078Z,82.98
2023-05-02T23:10:38.977Z,82.67
2023-05-02T23:11:39.875Z,83.09
2023-05-02T23:12:40.777Z,82.88
2023-05-02T23:13:41.671Z,82.78
2023-05-02T23:14:42.622Z,83.19
2023-05-02T23:15:43.532Z,82.78
2023-05-02T23:16:44.413Z,82.57
2023-05-02T23:17:45.365Z,82.88
2023-05-02T23:18:46.243Z,82.71
2023-05-02T23:19:47.133Z,82.71
2023-05-02T23:20:48.039Z,83.23
2023-05-02T23:21:48.924Z,83.44
2023-05-02T23:22:49.850Z,83.44
2023-05-02T23:23:50.741Z,83.02
2023-05-02T23:24:51.625Z,83.33
2023-05-02T23:25:52.528Z,83.33
2023-05-02T23:26:53.405Z,84.06
2023-05-02T23:27:54.320Z,83.64
2023-05-02T23:28:55.212Z,84.16
2023-05-02T23:29:56.107Z,84.68
2023-05-02T23:30:56.980Z,85.34
2023-05-02T23:31:57.992Z,85.34
2023-05-02T23:32:58.498Z,85.34
2023-05-02T23:33:59.359Z,85.58
2023-05-02T23:35:00.249Z,85.69
2023-05-02T23:36:01.152Z,86.31
2023-05-02T23:37:02.050Z,87.14
2023-05-02T23:38:02.944Z,87.35
2023-05-02T23:39:03.860Z,87.35
2023-05-02T23:40:05.005Z,87.66
2023-05-02T23:41:05.593Z,87.35
2023-05-02T23:42:06.550Z,86.62
2023-05-02T23:43:07.482Z,87.14
2023-05-02T23:44:07.933Z,86.62
2023-05-02T23:45:08.832Z,86.21
2023-05-02T23:46:09.741Z,86.52
2023-05-02T23:47:10.754Z,86.83
2023-05-02T23:48:11.204Z,86.62
2023-05-02T23:49:12.075Z,87.38
2023-05-02T23:50:12.973Z,86.55
2023-05-02T23:51:13.884Z,86.45
2023-05-02T23:52:14.785Z,85.69
2023-05-02T23:53:15.692Z,85.38
2023-05-02T23:54:16.555Z,85.17
2023-05-02T23:55:17.433Z,84.96
2023-05-02T23:56:18.317Z,84.75
2023-05-02T23:57:19.251Z,84.75
2023-05-02T23:58:20.148Z,84.75
2023-05-02T23:59:21.022Z,84.44
